createdAt,value
2017-06-15T00:00:03.178Z,0
2017-06-15T00:05:02.675Z,0
2017-06-15T00:10:03.136Z,0
2017-06-15T00:15:02.498Z,0
2017-06-15T00:20:02.877Z,0
2017-06-15T00:25:03.275Z,0
2017-06-15T00:30:02.578Z,0
2017-06-15T00:35:03.100Z,0
2017-06-15T00:40:02.545Z,0
2017-06-15T00:45:02.905Z,0
2017-06-15T00:50:03.216Z,0
2017-06-15T00:55:02.563Z,0
2017-06-15T01:00:03.014Z,0
2017-06-15T01:05:02.423Z,0
2017-06-15T01:10:02.870Z,0
2017-06-15T01:15:03.269Z,0
2017-06-15T01:20:02.727Z,0
2017-06-15T01:25:03.082Z,0
2017-06-15T01:30:02.428Z,0
2017-06-15T01:35:02.869Z,0
2017-06-15T01:40:02.393Z,0
2017-06-15T01:45:02.848Z,0
2017-06-15T01:50:03.344Z,0
2017-06-15T01:55:02.742Z,0
2017-06-15T02:00:03.183Z,0
2017-06-15T02:05:02.647Z,0
2017-06-15T02:10:03.071Z,0
2017-06-15T02:15:02.521Z,0
2017-06-15T02:20:02.875Z,0
2017-06-15T02:25:03.315Z,0
2017-06-15T02:30:02.659Z,1
2017-06-15T02:35:03.143Z,2
2017-06-15T02:40:02.545Z,6
2017-06-15T02:45:02.933Z,13
2017-06-15T02:50:02.437Z,27
2017-06-15T02:55:02.730Z,36
2017-06-15T03:00:03.110Z,48
2017-06-15T03:05:02.411Z,58
2017-06-15T03:10:02.930Z,58
2017-06-15T03:15:03.292Z,64
2017-06-15T03:20:02.632Z,93
2017-06-15T03:25:03.015Z,148
2017-06-15T03:30:02.446Z,377
2017-06-15T03:35:02.944Z,498
2017-06-15T03:40:03.269Z,601
2017-06-15T03:45:02.600Z,691
2017-06-15T03:50:02.941Z,823
2017-06-15T03:55:02.351Z,961
2017-06-15T04:00:03.050Z,1000
2017-06-15T04:05:02.357Z,3000
2017-06-15T04:10:02.831Z,4000
2017-06-15T04:15:03.318Z,2000
2017-06-15T04:20:02.706Z,1000
2017-06-15T04:25:03.220Z,1000
2017-06-15T04:30:02.575Z,1000
2017-06-15T04:35:02.927Z,1000
2017-06-15T04:40:02.353Z,1000
2017-06-15T04:45:02.778Z,1000
2017-06-15T04:50:03.205Z,1000
2017-06-15T04:55:02.586Z,2000
2017-06-15T05:00:03.036Z,2000
2017-06-15T05:05:02.359Z,2000
2017-06-15T05:10:02.738Z,2000
2017-06-15T05:15:03.140Z,2000
2017-06-15T05:20:02.493Z,2000
2017-06-15T05:25:02.883Z,3000
2017-06-15T05:30:03.444Z,3000
2017-06-15T05:35:02.886Z,3000
2017-06-15T05:40:03.197Z,4000
2017-06-15T05:45:02.595Z,3000
2017-06-15T05:50:03.010Z,3000
2017-06-15T05:55:02.422Z,4000
2017-06-15T06:00:02.697Z,4000
2017-06-15T06:05:02.978Z,4000
2017-06-15T06:10:02.421Z,4000
2017-06-15T06:15:02.934Z,5000
2017-06-15T06:20:02.373Z,6000
2017-06-15T06:25:02.710Z,7000
2017-06-15T06:30:03.106Z,7000
2017-06-15T06:35:02.429Z,6000
2017-06-15T06:40:02.871Z,4000
2017-06-15T06:45:03.288Z,4000
2017-06-15T06:50:02.601Z,5000
2017-06-15T06:55:02.969Z,8000
2017-06-15T07:00:03.240Z,8000
2017-06-15T07:05:02.681Z,5000
2017-06-15T07:10:03.093Z,5000
2017-06-15T07:15:02.470Z,5000
2017-06-15T07:20:02.786Z,6000
2017-06-15T07:25:03.084Z,7000
2017-06-15T07:30:02.676Z,12000
2017-06-15T07:35:03.065Z,30000
2017-06-15T07:40:02.488Z,31000
2017-06-15T07:45:02.833Z,32000
2017-06-15T07:50:03.228Z,20000
2017-06-15T07:55:02.512Z,34000
2017-06-15T08:00:02.865Z,40000
2017-06-15T08:05:03.282Z,41000
2017-06-15T08:10:02.705Z,39000
2017-06-15T08:15:03.149Z,32000
2017-06-15T08:20:02.499Z,45000
2017-06-15T08:25:02.918Z,48000
2017-06-15T08:30:03.281Z,45000
2017-06-15T08:35:02.562Z,51000
2017-06-15T08:40:03.059Z,48000
2017-06-15T08:45:02.421Z,49000
2017-06-15T08:50:02.966Z,49000
2017-06-15T08:55:03.268Z,28000
2017-06-15T09:00:02.667Z,49000
2017-06-15T09:05:03.013Z,35000
2017-06-15T09:10:02.383Z,32000
2017-06-15T09:15:02.725Z,49000
2017-06-15T09:20:03.106Z,36000
2017-06-15T09:25:02.455Z,38000
2017-06-15T09:30:02.801Z,58000
2017-06-15T09:35:02.398Z,34000
2017-06-15T09:40:02.867Z,46000
2017-06-15T09:45:03.240Z,55000
2017-06-15T09:50:02.543Z,51000
2017-06-15T10:00:02.444Z,49000
2017-06-15T10:05:02.794Z,49000
2017-06-15T10:15:02.828Z,48000
2017-06-15T10:20:03.315Z,49000
2017-06-15T10:25:02.683Z,49000
2017-06-15T10:30:03.140Z,48000
2017-06-15T10:35:02.763Z,48000
2017-06-15T10:40:02.523Z,48000
2017-06-15T10:45:02.997Z,48000
2017-06-15T10:50:02.477Z,50000
2017-06-15T10:55:03.136Z,34000
2017-06-15T11:00:02.578Z,28000
2017-06-15T11:05:02.994Z,47000
2017-06-15T11:15:02.657Z,26000
2017-06-15T11:20:02.696Z,31000
2017-06-15T11:30:03.157Z,28000
2017-06-15T11:35:02.665Z,26000
2017-06-15T11:40:02.602Z,35000
2017-06-15T11:50:02.299Z,24000
2017-06-15T11:55:03.184Z,27000
2017-06-15T12:00:02.692Z,18000
2017-06-15T12:05:02.477Z,14000
2017-06-15T12:10:02.669Z,16000
2017-06-15T12:15:02.816Z,11000
2017-06-15T12:20:02.370Z,11000
2017-06-15T12:25:03.167Z,17000
2017-06-15T12:30:03.121Z,23000
2017-06-15T12:35:02.313Z,18000
2017-06-15T12:40:02.844Z,10000
2017-06-15T12:45:02.457Z,8000
2017-06-15T12:50:03.173Z,6000
2017-06-15T12:55:02.418Z,5000
2017-06-15T13:00:02.444Z,6000
2017-06-15T13:05:02.463Z,5000
2017-06-15T13:10:02.373Z,7000
2017-06-15T13:15:03.099Z,2000
2017-06-15T13:20:02.730Z,2000
2017-06-15T13:25:02.538Z,4000
2017-06-15T13:30:03.230Z,6000
2017-06-15T13:35:02.554Z,9000
2017-06-15T13:40:02.955Z,9000
2017-06-15T13:45:02.884Z,10000
2017-06-15T13:50:02.631Z,13000
2017-06-15T13:55:02.551Z,13000
2017-06-15T14:00:03.013Z,21000
2017-06-15T14:05:02.364Z,13000
2017-06-15T14:10:02.326Z,11000
2017-06-15T14:15:03.073Z,21000
2017-06-15T14:20:03.204Z,30000
2017-06-15T14:25:03.143Z,18000
2017-06-15T14:30:02.516Z,28000
2017-06-15T14:35:02.854Z,32000
2017-06-15T14:40:03.284Z,27000
2017-06-15T14:45:02.404Z,31000
2017-06-15T14:50:03.044Z,30000
2017-06-15T14:55:02.755Z,29000
2017-06-15T15:00:02.750Z,13000
2017-06-15T15:05:03.107Z,31000
2017-06-15T15:10:02.819Z,31000
2017-06-15T15:15:02.987Z,29000
2017-06-15T15:20:03.089Z,26000
2017-06-15T15:25:02.689Z,21000
2017-06-15T15:30:03.114Z,29000
2017-06-15T15:35:02.313Z,13000
2017-06-15T15:40:02.834Z,20000
2017-06-15T15:45:02.908Z,19000
2017-06-15T15:50:02.351Z,28000
2017-06-15T15:55:03.252Z,22000
2017-06-15T16:00:03.370Z,18000
2017-06-15T16:05:03.158Z,18000
2017-06-15T16:10:02.994Z,16000
2017-06-15T16:15:02.895Z,15000
2017-06-15T16:20:02.401Z,19000
2017-06-15T16:25:03.303Z,16000
2017-06-15T16:30:02.835Z,14000
2017-06-15T16:35:03.211Z,13000
2017-06-15T16:40:02.981Z,15000
2017-06-15T16:45:02.315Z,17000
2017-06-15T16:50:02.773Z,11000
2017-06-15T16:55:03.237Z,15000
2017-06-15T17:00:02.600Z,16000
2017-06-15T17:05:02.967Z,15000
2017-06-15T17:10:02.390Z,13000
2017-06-15T17:15:02.885Z,13000
2017-06-15T17:20:03.290Z,8000
2017-06-15T17:25:02.655Z,9000
2017-06-15T17:30:02.972Z,9000
2017-06-15T17:35:02.350Z,8000
2017-06-15T17:40:02.961Z,8000
2017-06-15T17:45:02.436Z,7000
2017-06-15T17:50:03.005Z,7000
2017-06-15T17:55:02.482Z,7000
2017-06-15T18:00:02.885Z,6000
2017-06-15T18:05:02.332Z,6000
2017-06-15T18:10:02.907Z,5000
2017-06-15T18:15:03.246Z,5000
2017-06-15T18:20:02.545Z,4000
2017-06-15T18:25:02.954Z,4000
2017-06-15T18:30:02.357Z,4000
2017-06-15T18:35:02.935Z,4000
2017-06-15T18:40:02.691Z,3000
2017-06-15T18:45:03.236Z,3000
2017-06-15T18:50:02.766Z,2000
2017-06-15T18:55:02.306Z,2000
2017-06-15T19:00:02.996Z,1000
2017-06-15T19:05:02.499Z,1000
2017-06-15T19:10:03.049Z,1000
2017-06-15T19:15:02.545Z,810
2017-06-15T19:20:03.088Z,675
2017-06-15T19:25:02.354Z,578
2017-06-15T19:30:02.652Z,516
2017-06-15T19:35:02.955Z,435
2017-06-15T19:40:02.562Z,358
2017-06-15T19:45:03.069Z,286
2017-06-15T19:50:02.520Z,173
2017-06-15T19:55:02.920Z,104
2017-06-15T20:00:03.236Z,83
2017-06-15T20:05:02.572Z,66
2017-06-15T20:10:03.090Z,50
2017-06-15T20:15:02.441Z,39
2017-06-15T20:20:02.931Z,32
2017-06-15T20:25:02.445Z,20
2017-06-15T20:30:02.877Z,7
2017-06-15T20:35:03.349Z,7
2017-06-15T20:40:02.780Z,3
2017-06-15T20:45:03.322Z,1
2017-06-15T20:50:02.937Z,0
2017-06-15T20:55:02.342Z,0
2017-06-15T21:00:02.954Z,0
2017-06-15T21:05:02.332Z,0
2017-06-15T21:10:02.854Z,0
2017-06-15T21:15:03.209Z,0
2017-06-15T21:20:02.561Z,0
2017-06-15T21:25:02.916Z,0
2017-06-15T21:30:03.321Z,0
2017-06-15T21:35:02.657Z,0
2017-06-15T21:40:03.044Z,0
2017-06-15T21:45:02.350Z,0
2017-06-15T21:50:02.757Z,0
2017-06-15T21:55:03.186Z,0
2017-06-15T22:00:02.568Z,0
2017-06-15T22:05:02.975Z,0
2017-06-15T22:10:02.550Z,0
2017-06-15T22:15:03.010Z,0
2017-06-15T22:20:02.338Z,0
2017-06-15T22:25:02.737Z,0
2017-06-15T22:30:03.086Z,0
2017-06-15T22:35:03.269Z,0
2017-06-15T22:40:02.728Z,0
2017-06-15T22:45:03.079Z,0
2017-06-15T22:50:02.555Z,0
2017-06-15T22:55:02.977Z,0
2017-06-15T23:00:03.445Z,0
2017-06-15T23:05:02.902Z,0
2017-06-15T23:10:02.319Z,0
2017-06-15T23:15:02.783Z,0
2017-06-15T23:20:03.179Z,0
2017-06-15T23:25:02.629Z,0
2017-06-15T23:30:02.985Z,0
2017-06-15T23:35:02.469Z,0
2017-06-15T23:40:02.754Z,0
2017-06-15T23:45:03.011Z,0
2017-06-15T23:50:02.471Z,0
2017-06-15T23:55:02.728Z,0
